sensor_id;sensor_type;location;lat;lon;timestamp;pressure;altitude;pressure_sealevel;temperature;humidity
5879;BME280;2965;42.640;23.370;2023-08-06T04:02:30;93450.50;;;19.99;nan
5879;BME280;2965;42.640;23.370;2023-08-06T04:04:55;93462.19;;;19.93;nan
5879;BME280;2965;42.640;23.370;2023-08-06T04:07:20;93465.91;;;19.97;nan
5879;BME280;2965;42.640;23.370;2023-08-06T04:10:00;93455.56;;;19.95;nan
5879;BME280;2965;42.640;23.370;2023-08-06T04:12:26;93438.31;;;19.98;nan
5879;BME280;2965;42.640;23.370;2023-08-06T04:14:52;93419.75;;;19.93;nan
5879;BME280;2965;42.640;23.370;2023-08-06T04:17:18;93406.19;;;20.04;nan
5879;BME280;2965;42.640;23.370;2023-08-06T04:19:53;93416.50;;;20.21;nan
5879;BME280;2965;42.640;23.370;2023-08-06T04:22:20;93420.22;;;20.20;nan
5879;BME280;2965;42.640;23.370;2023-08-06T04:24:45;93407.00;;;19.95;nan
5879;BME280;2965;42.640;23.370;2023-08-06T04:27:11;93419.19;;;19.96;nan
5879;BME280;2965;42.640;23.370;2023-08-06T04:29:37;93425.00;;;20.13;nan
5879;BME280;2965;42.640;23.370;2023-08-06T04:32:08;93419.69;;;20.13;nan
5879;BME280;2965;42.640;23.370;2023-08-06T04:34:37;93416.75;;;20.25;nan
5879;BME280;2965;42.640;23.370;2023-08-06T04:37:03;93408.47;;;20.47;nan
5879;BME280;2965;42.640;23.370;2023-08-06T04:39:29;93406.91;;;20.35;nan
5879;BME280;2965;42.640;23.370;2023-08-06T04:41:57;93398.47;;;20.13;nan
5879;BME280;2965;42.640;23.370;2023-08-06T04:44:22;93393.69;;;20.20;nan
5879;BME280;2965;42.640;23.370;2023-08-06T04:46:48;93385.72;;;20.15;nan
5879;BME280;2965;42.640;23.370;2023-08-06T04:49:14;93383.63;;;20.02;nan
5879;BME280;2965;42.640;23.370;2023-08-06T04:51:39;93378.88;;;19.94;nan
5879;BME280;2965;42.640;23.370;2023-08-06T04:54:04;93365.56;;;20.09;nan
5879;BME280;2965;42.640;23.370;2023-08-06T04:56:30;93366.03;;;20.31;nan
5879;BME280;2965;42.640;23.370;2023-08-06T04:58:55;93357.59;;;20.19;nan
5879;BME280;2965;42.640;23.370;2023-08-06T05:01:20;93363.41;;;20.21;nan
5879;BME280;2965;42.640;23.370;2023-08-06T05:03:47;93373.50;;;20.24;nan
5879;BME280;2965;42.640;23.370;2023-08-06T05:06:12;93358.56;;;20.98;nan
5879;BME280;2965;42.640;23.370;2023-08-06T05:08:38;93360.66;;;21.06;nan
5879;BME280;2965;42.640;23.370;2023-08-06T05:11:03;93360.94;;;21.05;nan
5879;BME280;2965;42.640;23.370;2023-08-06T05:13:28;93360.31;;;21.18;nan
5879;BME280;2965;42.640;23.370;2023-08-06T05:15:54;93373.22;;;21.74;nan
5879;BME280;2965;42.640;23.370;2023-08-06T05:18:19;93381.47;;;22.31;nan
5879;BME280;2965;42.640;23.370;2023-08-06T05:20:45;93366.06;;;22.52;nan
5879;BME280;2965;42.640;23.370;2023-08-06T05:23:10;93364.94;;;22.58;nan
5879;BME280;2965;42.640;23.370;2023-08-06T05:25:36;93348.34;;;22.18;nan
5879;BME280;2965;42.640;23.370;2023-08-06T05:28:02;93354.91;;;21.97;nan
5879;BME280;2965;42.640;23.370;2023-08-06T05:30:28;93353.06;;;22.21;nan
5879;BME280;2965;42.640;23.370;2023-08-06T05:32:53;93361.81;;;22.51;nan
5879;BME280;2965;42.640;23.370;2023-08-06T05:35:19;93359.28;;;22.40;nan
5879;BME280;2965;42.640;23.370;2023-08-06T05:37:44;93348.84;;;22.20;nan
5879;BME280;2965;42.640;23.370;2023-08-06T05:40:10;93345.19;;;22.11;nan
5879;BME280;2965;42.640;23.370;2023-08-06T05:42:35;93339.38;;;22.04;nan
5879;BME280;2965;42.640;23.370;2023-08-06T05:45:00;93348.56;;;21.92;nan
5879;BME280;2965;42.640;23.370;2023-08-06T05:47:26;93339.59;;;21.83;nan
5879;BME280;2965;42.640;23.370;2023-08-06T05:49:51;93347.66;;;22.02;nan
5879;BME280;2965;42.640;23.370;2023-08-06T05:52:16;93340.03;;;21.90;nan
5879;BME280;2965;42.640;23.370;2023-08-06T05:54:42;93348.91;;;22.10;nan
5879;BME280;2965;42.640;23.370;2023-08-06T05:57:07;93336.84;;;21.94;nan
5879;BME280;2965;42.640;23.370;2023-08-06T05:59:32;93342.75;;;21.85;nan
5879;BME280;2965;42.640;23.370;2023-08-06T14:43:05;93402.06;;;30.81;nan
5879;BME280;2965;42.640;23.370;2023-08-06T14:45:30;93403.06;;;30.31;nan
5879;BME280;2965;42.640;23.370;2023-08-06T14:47:55;93404.25;;;30.55;nan
5879;BME280;2965;42.640;23.370;2023-08-06T14:50:21;93399.59;;;31.13;nan
5879;BME280;2965;42.640;23.370;2023-08-06T14:52:47;93400.94;;;30.82;nan
5879;BME280;2965;42.640;23.370;2023-08-06T14:55:17;93404.97;;;30.88;nan
5879;BME280;2965;42.640;23.370;2023-08-06T14:57:47;93394.19;;;31.01;nan
5879;BME280;2965;42.640;23.370;2023-08-06T15:00:13;93388.53;;;31.18;nan
5879;BME280;2965;42.640;23.370;2023-08-06T15:02:38;93378.59;;;31.47;nan
5879;BME280;2965;42.640;23.370;2023-08-06T15:05:04;93380.28;;;31.51;nan
5879;BME280;2965;42.640;23.370;2023-08-06T15:07:30;93384.66;;;31.96;nan
5879;BME280;2965;42.640;23.370;2023-08-06T15:09:58;93374.78;;;32.60;nan
5879;BME280;2965;42.640;23.370;2023-08-06T15:12:23;93384.03;;;32.75;nan
5879;BME280;2965;42.640;23.370;2023-08-06T15:14:49;93383.84;;;33.15;nan
5879;BME280;2965;42.640;23.370;2023-08-06T15:17:14;93382.56;;;32.46;nan
5879;BME280;2965;42.640;23.370;2023-08-06T15:19:39;93384.19;;;32.06;nan
5879;BME280;2965;42.640;23.370;2023-08-06T15:22:05;93374.84;;;32.04;nan
5879;BME280;2965;42.640;23.370;2023-08-06T15:24:31;93377.69;;;32.23;nan
5879;BME280;2965;42.640;23.370;2023-08-06T15:26:56;93375.22;;;32.18;nan
5879;BME280;2965;42.640;23.370;2023-08-06T15:29:21;93378.22;;;31.08;nan
5879;BME280;2965;42.640;23.370;2023-08-06T15:31:47;93379.88;;;30.18;nan
5879;BME280;2965;42.640;23.370;2023-08-06T15:34:12;93369.25;;;30.01;nan
5879;BME280;2965;42.640;23.370;2023-08-06T15:36:37;93376.13;;;29.77;nan
5879;BME280;2965;42.640;23.370;2023-08-06T15:39:03;93369.00;;;29.94;nan
5879;BME280;2965;42.640;23.370;2023-08-06T15:41:31;93375.69;;;29.75;nan
5879;BME280;2965;42.640;23.370;2023-08-06T15:43:56;93391.47;;;29.35;nan
5879;BME280;2965;42.640;23.370;2023-08-06T15:46:22;93390.88;;;29.00;nan
5879;BME280;2965;42.640;23.370;2023-08-06T15:48:47;93391.81;;;29.04;nan
5879;BME280;2965;42.640;23.370;2023-08-06T15:51:13;93402.28;;;29.56;nan
5879;BME280;2965;42.640;23.370;2023-08-06T15:53:38;93412.50;;;29.83;nan
5879;BME280;2965;42.640;23.370;2023-08-06T15:56:03;93402.66;;;29.87;nan
5879;BME280;2965;42.640;23.370;2023-08-06T15:58:30;93403.69;;;30.16;nan
5879;BME280;2965;42.640;23.370;2023-08-06T16:00:57;93406.34;;;30.49;nan
5879;BME280;2965;42.640;23.370;2023-08-06T16:03:22;93409.34;;;30.93;nan
5879;BME280;2965;42.640;23.370;2023-08-06T16:05:48;93406.28;;;30.70;nan
5879;BME280;2965;42.640;23.370;2023-08-06T16:08:13;93418.84;;;30.54;nan
5879;BME280;2965;42.640;23.370;2023-08-06T16:10:39;93421.53;;;29.87;nan
5879;BME280;2965;42.640;23.370;2023-08-06T16:13:09;93435.16;;;29.40;nan
5879;BME280;2965;42.640;23.370;2023-08-06T16:15:34;93427.84;;;29.20;nan
5879;BME280;2965;42.640;23.370;2023-08-06T16:17:59;93431.25;;;29.00;nan
5879;BME280;2965;42.640;23.370;2023-08-06T16:20:25;93443.34;;;28.85;nan
5879;BME280;2965;42.640;23.370;2023-08-06T16:22:51;93435.06;;;28.60;nan
5879;BME280;2965;42.640;23.370;2023-08-06T16:25:16;93445.06;;;28.51;nan
5879;BME280;2965;42.640;23.370;2023-08-06T16:27:42;93445.88;;;28.17;nan
5879;BME280;2965;42.640;23.370;2023-08-06T16:30:07;93444.31;;;27.81;nan
5879;BME280;2965;42.640;23.370;2023-08-06T16:32:33;93445.06;;;27.64;nan
5879;BME280;2965;42.640;23.370;2023-08-06T16:34:58;93450.59;;;27.59;nan
5879;BME280;2965;42.640;23.370;2023-08-06T16:37:24;93450.53;;;27.16;nan
5879;BME280;2965;42.640;23.370;2023-08-06T16:39:49;93453.06;;;27.21;nan
5879;BME280;2965;42.640;23.370;2023-08-06T16:42:15;93457.09;;;27.01;nan
5879;BME280;2965;42.640;23.370;2023-08-06T16:44:40;93455.81;;;26.99;nan
5879;BME280;2965;42.640;23.370;2023-08-06T16:47:06;93464.41;;;26.78;nan
5879;BME280;2965;42.640;23.370;2023-08-06T16:49:31;93468.63;;;26.62;nan
5879;BME280;2965;42.640;23.370;2023-08-06T16:51:57;93464.91;;;26.80;nan
5879;BME280;2965;42.640;23.370;2023-08-06T16:54:22;93472.38;;;26.38;nan
5879;BME280;2965;42.640;23.370;2023-08-06T16:56:47;93470.09;;;26.46;nan
5879;BME280;2965;42.640;23.370;2023-08-06T16:59:13;93481.00;;;26.49;nan
5879;BME280;2965;42.640;23.370;2023-08-06T17:01:38;93486.19;;;26.46;nan
5879;BME280;2965;42.640;23.370;2023-08-06T17:04:04;93477.88;;;26.33;nan
5879;BME280;2965;42.640;23.370;2023-08-06T17:06:30;93472.47;;;26.47;nan
5879;BME280;2965;42.640;23.370;2023-08-06T17:08:55;93481.66;;;26.32;nan
5879;BME280;2965;42.640;23.370;2023-08-06T17:11:20;93489.22;;;26.30;nan
5879;BME280;2965;42.640;23.370;2023-08-06T17:13:47;93483.97;;;26.03;nan
5879;BME280;2965;42.640;23.370;2023-08-06T17:16:12;93507.47;;;25.83;nan
5879;BME280;2965;42.640;23.370;2023-08-06T17:18:38;93501.56;;;25.59;nan
5879;BME280;2965;42.640;23.370;2023-08-06T17:21:04;93504.00;;;25.69;nan
5879;BME280;2965;42.640;23.370;2023-08-06T17:23:30;93490.09;;;25.67;nan
5879;BME280;2965;42.640;23.370;2023-08-06T17:25:55;93500.88;;;25.89;nan
5879;BME280;2965;42.640;23.370;2023-08-06T17:28:20;93503.81;;;25.79;nan
5879;BME280;2965;42.640;23.370;2023-08-06T17:30:46;93496.50;;;25.44;nan
5879;BME280;2965;42.640;23.370;2023-08-06T17:33:11;93502.44;;;25.40;nan
5879;BME280;2965;42.640;23.370;2023-08-06T17:35:40;93500.75;;;25.45;nan
5879;BME280;2965;42.640;23.370;2023-08-06T17:38:06;93511.50;;;25.17;nan
5879;BME280;2965;42.640;23.370;2023-08-06T17:40:31;93510.50;;;25.27;nan
5879;BME280;2965;42.640;23.370;2023-08-06T17:42:57;93511.03;;;25.15;nan
5879;BME280;2965;42.640;23.370;2023-08-06T17:45:22;93516.63;;;25.00;nan
5879;BME280;2965;42.640;23.370;2023-08-06T17:47:48;93520.41;;;25.12;nan
5879;BME280;2965;42.640;23.370;2023-08-06T17:50:14;93521.00;;;25.09;nan
5879;BME280;2965;42.640;23.370;2023-08-06T17:52:39;93526.34;;;25.23;nan
5879;BME280;2965;42.640;23.370;2023-08-06T17:55:05;93531.13;;;25.12;nan
5879;BME280;2965;42.640;23.370;2023-08-06T17:57:31;93529.88;;;24.91;nan
5879;BME280;2965;42.640;23.370;2023-08-06T17:59:56;93544.69;;;25.16;nan
5879;BME280;2965;42.640;23.370;2023-08-06T18:02:22;93545.25;;;24.85;nan
5879;BME280;2965;42.640;23.370;2023-08-06T18:04:47;93546.81;;;24.86;nan
5879;BME280;2965;42.640;23.370;2023-08-06T18:07:13;93552.28;;;24.95;nan
5879;BME280;2965;42.640;23.370;2023-08-06T18:09:38;93555.25;;;24.94;nan
5879;BME280;2965;42.640;23.370;2023-08-06T18:12:04;93566.66;;;24.53;nan
5879;BME280;2965;42.640;23.370;2023-08-06T18:14:29;93574.25;;;24.46;nan
5879;BME280;2965;42.640;23.370;2023-08-06T18:16:55;93575.84;;;24.79;nan
5879;BME280;2965;42.640;23.370;2023-08-06T18:19:20;93574.00;;;24.61;nan
5879;BME280;2965;42.640;23.370;2023-08-06T18:21:47;93587.53;;;24.51;nan
5879;BME280;2965;42.640;23.370;2023-08-06T18:24:12;93592.88;;;24.32;nan
5879;BME280;2965;42.640;23.370;2023-08-06T18:26:38;93593.63;;;24.37;nan
5879;BME280;2965;42.640;23.370;2023-08-06T18:29:03;93595.44;;;24.04;nan
5879;BME280;2965;42.640;23.370;2023-08-06T18:31:28;93602.91;;;24.02;nan
5879;BME280;2965;42.640;23.370;2023-08-06T18:33:54;93604.94;;;23.91;nan
5879;BME280;2965;42.640;23.370;2023-08-06T18:36:20;93607.47;;;23.83;nan
5879;BME280;2965;42.640;23.370;2023-08-06T18:38:45;93612.81;;;23.83;nan
5879;BME280;2965;42.640;23.370;2023-08-06T18:41:15;93613.94;;;23.77;nan
5879;BME280;2965;42.640;23.370;2023-08-06T18:43:40;93612.72;;;23.69;nan
5879;BME280;2965;42.640;23.370;2023-08-06T18:46:05;93617.34;;;23.34;nan
5879;BME280;2965;42.640;23.370;2023-08-06T18:48:31;93630.16;;;23.32;nan
5879;BME280;2965;42.640;23.370;2023-08-06T18:50:57;93621.09;;;23.33;nan
5879;BME280;2965;42.640;23.370;2023-08-06T18:53:22;93621.09;;;23.33;nan
5879;BME280;2965;42.640;23.370;2023-08-06T18:55:49;93628.03;;;23.34;nan
5879;BME280;2965;42.640;23.370;2023-08-06T18:58:15;93634.63;;;23.42;nan
5879;BME280;2965;42.640;23.370;2023-08-06T19:00:41;93639.13;;;23.41;nan
5879;BME280;2965;42.640;23.370;2023-08-06T19:03:07;93649.19;;;23.50;nan
5879;BME280;2965;42.640;23.370;2023-08-06T19:05:37;93640.06;;;23.56;nan
5879;BME280;2965;42.640;23.370;2023-08-06T19:08:04;93645.72;;;23.49;nan
5879;BME280;2965;42.640;23.370;2023-08-06T19:10:29;93644.16;;;23.48;nan
5879;BME280;2965;42.640;23.370;2023-08-06T19:12:58;93643.34;;;23.48;nan
5879;BME280;2965;42.640;23.370;2023-08-06T19:15:23;93634.03;;;23.45;nan
5879;BME280;2965;42.640;23.370;2023-08-06T19:17:49;93667.81;;;23.02;nan
5879;BME280;2965;42.640;23.370;2023-08-06T19:20:14;93650.59;;;23.18;nan
5879;BME280;2965;42.640;23.370;2023-08-06T19:22:40;93659.63;;;22.93;nan
5879;BME280;2965;42.640;23.370;2023-08-06T19:25:05;93664.22;;;22.82;nan
5879;BME280;2965;42.640;23.370;2023-08-06T19:27:31;93668.84;;;23.06;nan
5879;BME280;2965;42.640;23.370;2023-08-06T19:29:56;93673.50;;;23.19;nan
5879;BME280;2965;42.640;23.370;2023-08-06T19:32:21;93688.28;;;23.11;nan
5879;BME280;2965;42.640;23.370;2023-08-06T19:34:47;93695.28;;;23.02;nan
5879;BME280;2965;42.640;23.370;2023-08-06T19:37:12;93692.97;;;22.90;nan
5879;BME280;2965;42.640;23.370;2023-08-06T19:39:38;93711.50;;;22.66;nan
5879;BME280;2965;42.640;23.370;2023-08-06T19:42:04;93721.41;;;22.61;nan
5879;BME280;2965;42.640;23.370;2023-08-06T19:44:29;93793.06;;;22.03;nan
5879;BME280;2965;42.640;23.370;2023-08-06T19:46:55;93816.56;;;21.14;nan
5879;BME280;2965;42.640;23.370;2023-08-06T19:49:20;93860.31;;;20.03;nan
5879;BME280;2965;42.640;23.370;2023-08-06T19:51:45;93884.34;;;19.54;nan
5879;BME280;2965;42.640;23.370;2023-08-06T19:54:11;93911.66;;;19.22;nan
5879;BME280;2965;42.640;23.370;2023-08-06T19:56:36;93910.22;;;19.09;nan
5879;BME280;2965;42.640;23.370;2023-08-06T19:59:02;93935.59;;;18.78;nan
5879;BME280;2965;42.640;23.370;2023-08-06T20:01:29;93943.97;;;18.70;nan
5879;BME280;2965;42.640;23.370;2023-08-06T20:03:56;93961.72;;;18.53;nan
5879;BME280;2965;42.640;23.370;2023-08-06T20:06:21;93956.38;;;18.48;nan
5879;BME280;2965;42.640;23.370;2023-08-06T20:08:55;93959.44;;;18.39;nan
5879;BME280;2965;42.640;23.370;2023-08-06T20:11:21;93959.44;;;18.39;nan
5879;BME280;2965;42.640;23.370;2023-08-06T20:13:46;93968.66;;;18.15;nan
5879;BME280;2965;42.640;23.370;2023-08-06T20:16:12;93950.13;;;18.15;nan
5879;BME280;2965;42.640;23.370;2023-08-06T20:18:39;93951.31;;;18.24;nan
5879;BME280;2965;42.640;23.370;2023-08-06T20:21:04;93947.78;;;18.19;nan
5879;BME280;2965;42.640;23.370;2023-08-06T20:23:30;93964.88;;;18.11;nan
5879;BME280;2965;42.640;23.370;2023-08-06T20:25:56;93976.16;;;18.23;nan
5879;BME280;2965;42.640;23.370;2023-08-06T20:28:21;93973.94;;;18.15;nan
5879;BME280;2965;42.640;23.370;2023-08-06T20:30:46;93956.09;;;18.27;nan
5879;BME280;2965;42.640;23.370;2023-08-06T20:33:12;93959.13;;;18.36;nan
5879;BME280;2965;42.640;23.370;2023-08-06T20:35:38;93976.50;;;18.49;nan
5879;BME280;2965;42.640;23.370;2023-08-06T20:38:05;93974.81;;;18.59;nan
5879;BME280;2965;42.640;23.370;2023-08-06T20:40:30;93981.75;;;18.65;nan
5879;BME280;2965;42.640;23.370;2023-08-06T20:42:56;93976.03;;;19.45;nan
5879;BME280;2965;42.640;23.370;2023-08-06T20:45:21;93969.19;;;19.49;nan
5879;BME280;2965;42.640;23.370;2023-08-06T20:47:46;93964.84;;;19.97;nan
5879;BME280;2965;42.640;23.370;2023-08-06T20:50:12;93950.09;;;20.16;nan
5879;BME280;2965;42.640;23.370;2023-08-06T20:52:37;93953.00;;;20.52;nan
5879;BME280;2965;42.640;23.370;2023-08-06T20:55:03;93944.53;;;20.55;nan
5879;BME280;2965;42.640;23.370;2023-08-06T20:57:28;93931.47;;;20.48;nan
5879;BME280;2965;42.640;23.370;2023-08-06T20:59:53;93932.34;;;20.22;nan
